createdAt,value
2023-08-11T00:04:01.141Z,101177.53
2023-08-11T00:09:22.909Z,101184.31
2023-08-11T00:14:44.620Z,101180.16
2023-08-11T00:20:07.467Z,101180.69
2023-08-11T00:25:29.270Z,101177.47
2023-08-11T00:30:50.971Z,101180.47
2023-08-11T00:36:12.871Z,101175.00
2023-08-11T00:41:34.643Z,101169.78
2023-08-11T00:46:56.589Z,101175.84
2023-08-11T00:52:18.960Z,101174.06
2023-08-11T00:57:41.176Z,101172.16
2023-08-11T01:03:03.031Z,101172.53
2023-08-11T01:08:55.702Z,101168.84
2023-08-11T01:14:36.304Z,101164.47
2023-08-11T01:19:59.447Z,101164.19
2023-08-11T01:25:21.929Z,101167.75
2023-08-11T01:30:43.713Z,101169.56
2023-08-11T01:36:05.740Z,101157.56
2023-08-11T01:41:27.486Z,101157.75
2023-08-11T01:46:52.549Z,101150.97
2023-08-11T01:52:14.374Z,101153.06
2023-08-11T01:57:41.830Z,101157.53
2023-08-11T02:03:07.109Z,101157.75
2023-08-11T02:08:28.877Z,101158.13
2023-08-11T02:13:50.575Z,101166.16
2023-08-11T02:19:12.377Z,101157.56
2023-08-11T02:24:34.088Z,101167.41
2023-08-11T02:29:55.788Z,101168.69
2023-08-11T02:35:17.523Z,101166.31
2023-08-11T02:40:39.248Z,101166.31
2023-08-11T02:46:01.132Z,101169.91
2023-08-11T02:51:22.914Z,101176.50
2023-08-11T02:56:48.920Z,101181.19
2023-08-11T03:02:10.964Z,101183.31
2023-08-11T03:07:32.930Z,101184.75
2023-08-11T03:12:54.618Z,101198.00
2023-08-11T03:18:16.398Z,101186.66
2023-08-11T03:23:38.152Z,101186.63
2023-08-11T03:28:59.889Z,101192.09
2023-08-11T03:34:21.641Z,101196.53
2023-08-11T03:39:43.419Z,101203.81
2023-08-11T03:45:05.535Z,101201.56
2023-08-11T03:50:27.344Z,101200.34
2023-08-11T03:55:50.100Z,101202.94
2023-08-11T04:01:11.893Z,101202.34
2023-08-11T04:06:33.656Z,101202.00
2023-08-11T04:11:55.387Z,101197.06
2023-08-11T04:17:17.196Z,101189.50
2023-08-11T04:22:39.630Z,101198.31
2023-08-11T04:28:01.437Z,101201.28
2023-08-11T04:33:23.136Z,101193.25
2023-08-11T04:38:44.838Z,101204.13
2023-08-11T04:44:06.633Z,101205.03
2023-08-11T04:49:28.349Z,101213.00
2023-08-11T04:54:50.074Z,101216.56
2023-08-11T05:00:12.183Z,101218.81
2023-08-11T05:05:33.926Z,101215.13
2023-08-11T05:10:55.668Z,101217.34
2023-08-11T05:16:17.390Z,101210.63
2023-08-11T05:21:39.209Z,101217.66
2023-08-11T05:27:00.925Z,101211.13
2023-08-11T05:32:23.292Z,101217.53
2023-08-11T05:37:45.054Z,101212.19
2023-08-11T05:43:07.057Z,101218.13
2023-08-11T05:48:28.808Z,101205.69
2023-08-11T05:53:53.128Z,101216.50
2023-08-11T05:59:16.016Z,101213.59
2023-08-11T06:04:37.815Z,101211.91
2023-08-11T06:10:02.255Z,101223.59
2023-08-11T06:15:24.546Z,101229.56
2023-08-11T06:20:46.433Z,101225.84
2023-08-11T06:26:08.242Z,101224.84
2023-08-11T06:31:29.965Z,101214.38
2023-08-11T06:36:51.695Z,101236.81
2023-08-11T06:42:13.416Z,101250.50
2023-08-11T06:47:35.655Z,101252.78
2023-08-11T06:53:00.117Z,101256.94
2023-08-11T06:58:24.789Z,101248.03
2023-08-11T07:03:48.177Z,101242.72
2023-08-11T07:09:09.875Z,101231.91
2023-08-11T07:14:31.592Z,101237.53
2023-08-11T07:19:53.315Z,101246.63
2023-08-11T07:25:15.060Z,101250.16
2023-08-11T07:30:36.848Z,101252.91
2023-08-11T07:35:58.754Z,101244.47
2023-08-11T07:41:20.453Z,101238.22
2023-08-11T07:46:42.470Z,101239.41
2023-08-11T07:52:04.360Z,101242.94
2023-08-11T07:57:26.132Z,101244.06
2023-08-11T08:02:48.523Z,101239.97
2023-08-11T08:08:11.237Z,101240.34
2023-08-11T08:13:33.344Z,101245.19
2023-08-11T08:18:55.133Z,101243.81
2023-08-11T08:24:16.844Z,101239.94
2023-08-11T08:29:38.595Z,101242.06
2023-08-11T08:35:00.416Z,101250.25
2023-08-11T08:40:22.209Z,101246.31
2023-08-11T08:45:44.934Z,101246.66
2023-08-11T08:51:07.367Z,101237.69
2023-08-11T08:56:29.759Z,101244.50
2023-08-11T09:01:51.927Z,101250.81
2023-08-11T09:07:13.831Z,101244.78
2023-08-11T09:12:35.673Z,101236.19
2023-08-11T09:17:59.794Z,101242.63
2023-08-11T09:23:23.443Z,101239.56
2023-08-11T09:28:47.036Z,101238.69
2023-08-11T09:34:14.068Z,101238.75
2023-08-11T09:39:37.145Z,101233.03
2023-08-11T09:44:58.871Z,101241.19
2023-08-11T09:50:22.507Z,101228.72
2023-08-11T09:55:44.952Z,101222.13
2023-08-11T10:01:20.652Z,101230.22
2023-08-11T10:06:49.847Z,101232.97
2023-08-11T10:12:12.820Z,101236.06
2023-08-11T10:17:35.327Z,101235.44
2023-08-11T10:22:58.217Z,101239.19
2023-08-11T10:28:20.737Z,101229.91
2023-08-11T10:33:49.248Z,101238.81
2023-08-11T10:39:11.026Z,101245.09
2023-08-11T10:44:34.161Z,101234.31
2023-08-11T10:49:57.294Z,101242.22
2023-08-11T10:55:19.116Z,101240.78
2023-08-11T11:00:41.598Z,101227.72
2023-08-11T11:06:07.473Z,101223.91
2023-08-11T11:11:29.205Z,101218.78
2023-08-11T11:16:51.147Z,101219.84
2023-08-11T11:22:14.173Z,101205.84
2023-08-11T11:27:41.956Z,101206.53
2023-08-11T11:33:04.937Z,101209.69
2023-08-11T11:38:26.942Z,101207.56
2023-08-11T11:43:50.797Z,101201.25
2023-08-11T11:49:28.045Z,101202.09
2023-08-11T11:54:56.021Z,101194.81
2023-08-11T12:00:17.809Z,101202.28
2023-08-11T12:05:40.373Z,101195.94
2023-08-11T12:11:05.013Z,101185.22
2023-08-11T12:16:27.586Z,101186.38
2023-08-11T12:21:50.995Z,101191.94
2023-08-11T12:27:12.695Z,101202.88
2023-08-11T12:32:34.422Z,101187.31
2023-08-11T12:37:56.165Z,101179.59
2023-08-11T12:43:17.999Z,101182.53
2023-08-11T12:48:39.721Z,101196.50
2023-08-11T12:54:01.438Z,101193.78
2023-08-11T12:59:23.159Z,101180.59
2023-08-11T13:04:45.075Z,101183.34
2023-08-11T13:10:07.584Z,101179.94
2023-08-11T13:15:29.376Z,101182.88
2023-08-11T13:20:51.086Z,101167.09
2023-08-11T13:26:12.806Z,101170.47
2023-08-11T13:31:34.554Z,101171.59
2023-08-11T13:36:56.302Z,101179.00
2023-08-11T13:42:18.034Z,101163.97
2023-08-11T13:47:39.787Z,101172.25
2023-08-11T13:53:01.528Z,101169.16
2023-08-11T13:58:23.312Z,101176.47
2023-08-11T14:03:45.067Z,101172.09
2023-08-11T14:09:06.851Z,101173.38
2023-08-11T14:14:28.589Z,101156.19
2023-08-11T14:19:50.324Z,101171.50
2023-08-11T14:25:12.069Z,101161.63
2023-08-11T14:30:34.055Z,101160.69
2023-08-11T14:41:24.733Z,101169.41
2023-08-11T14:46:46.450Z,101158.94
2023-08-11T14:52:08.607Z,101158.06
2023-08-11T14:57:30.488Z,101158.63
2023-08-11T15:02:52.249Z,101163.13
2023-08-11T15:08:14.071Z,101159.94
2023-08-11T15:13:35.783Z,101169.56
2023-08-11T15:18:57.511Z,101161.91
2023-08-11T15:24:19.227Z,101164.94
2023-08-11T15:29:40.933Z,101157.84
2023-08-11T15:35:02.916Z,101155.16
2023-08-11T15:40:24.642Z,101166.31
2023-08-11T15:45:46.394Z,101164.09
2023-08-11T15:51:08.135Z,101166.25
2023-08-11T15:56:29.875Z,101166.28
2023-08-11T16:02:07.417Z,101169.16
2023-08-11T16:07:30.942Z,101170.44
2023-08-11T16:12:52.735Z,101175.88
2023-08-11T16:18:14.576Z,101179.28
2023-08-11T16:23:36.571Z,101172.34
2023-08-11T16:28:58.338Z,101175.13
2023-08-11T16:34:23.558Z,101178.81
2023-08-11T16:39:45.266Z,101181.50
2023-08-11T16:45:07.292Z,101177.63
2023-08-11T16:50:29.016Z,101182.75
2023-08-11T16:55:50.771Z,101191.41
2023-08-11T17:01:12.667Z,101200.53
2023-08-11T17:06:34.421Z,101197.91
2023-08-11T17:11:56.152Z,101196.19
2023-08-11T17:17:17.930Z,101202.97
2023-08-11T17:22:39.717Z,101208.91
2023-08-11T17:28:01.444Z,101210.41
2023-08-11T17:33:23.229Z,101210.38
2023-08-11T17:38:44.960Z,101217.78
2023-08-11T17:44:06.928Z,101218.81
2023-08-11T17:49:28.659Z,101216.97
2023-08-11T17:54:50.504Z,101219.28
2023-08-11T18:00:12.593Z,101230.34
2023-08-11T18:05:40.842Z,101243.06
2023-08-11T18:11:02.559Z,101246.13
2023-08-11T18:16:24.343Z,101257.59
2023-08-11T18:21:46.125Z,101258.19
2023-08-11T18:27:07.868Z,101271.41
2023-08-11T18:32:29.625Z,101275.47
2023-08-11T18:37:51.336Z,101282.88
2023-08-11T18:43:13.047Z,101283.72
2023-08-11T18:48:34.814Z,101296.19
2023-08-11T18:53:56.711Z,101297.97
2023-08-11T18:59:18.491Z,101304.16
2023-08-11T19:04:40.246Z,101299.66
2023-08-11T19:10:02.007Z,101303.94
2023-08-11T19:15:23.801Z,101299.59
2023-08-11T19:20:47.410Z,101302.97
2023-08-11T19:26:09.131Z,101311.63
2023-08-11T19:31:30.895Z,101321.97
2023-08-11T19:36:52.640Z,101315.41
2023-08-11T19:42:14.345Z,101316.09
2023-08-11T19:47:36.107Z,101313.72
2023-08-11T19:52:57.896Z,101318.63
2023-08-11T19:58:19.647Z,101327.38
2023-08-11T20:03:41.336Z,101319.22
2023-08-11T20:09:03.229Z,101312.91
2023-08-11T20:14:25.021Z,101313.41
2023-08-11T20:19:46.763Z,101309.78
2023-08-11T20:25:08.939Z,101314.28
2023-08-11T20:30:30.676Z,101300.50
2023-08-11T20:35:52.372Z,101300.94
2023-08-11T20:41:14.097Z,101301.91
2023-08-11T20:46:35.829Z,101310.34
2023-08-11T20:51:57.527Z,101312.66
2023-08-11T20:57:19.278Z,101316.00
2023-08-11T21:02:40.970Z,101324.44
2023-08-11T21:08:02.860Z,101316.13
2023-08-11T21:13:24.592Z,101317.50
2023-08-11T21:18:46.319Z,101304.94
2023-08-11T21:24:08.211Z,101312.34
2023-08-11T21:29:31.163Z,101313.59
2023-08-11T21:34:52.889Z,101310.59
2023-08-11T21:40:14.602Z,101303.69
2023-08-11T21:45:36.301Z,101301.00
2023-08-11T21:50:58.008Z,101303.25
2023-08-11T21:56:19.812Z,101300.50
2023-08-11T22:01:41.567Z,101312.13
2023-08-11T22:07:05.452Z,101299.53
2023-08-11T22:12:27.407Z,101297.84
2023-08-11T22:17:49.211Z,101304.69
2023-08-11T22:23:11.009Z,101299.09
2023-08-11T22:28:32.793Z,101294.41
2023-08-11T22:33:54.537Z,101294.41
2023-08-11T22:39:16.264Z,101302.63
2023-08-11T22:44:38.019Z,101290.84
2023-08-11T22:49:59.741Z,101295.66
2023-08-11T22:55:21.455Z,101295.72
2023-08-11T23:00:43.213Z,101298.59
2023-08-11T23:06:04.900Z,101300.66
2023-08-11T23:11:26.664Z,101305.38
2023-08-11T23:16:48.397Z,101303.84
2023-08-11T23:22:10.115Z,101305.84
2023-08-11T23:27:31.986Z,101307.16
2023-08-11T23:32:53.798Z,101316.19
2023-08-11T23:38:16.387Z,101306.13
2023-08-11T23:43:38.205Z,101300.13
2023-08-11T23:48:59.948Z,101302.03
2023-08-11T23:54:21.670Z,101299.72
2023-08-11T23:59:43.387Z,101306.94
